sensor_id;sensor_type;location;lat;lon;timestamp;pressure;altitude;pressure_sealevel;temperature;humidity
56142;BME280;42018;48.588;10.836;2023-04-25T00:00:11;96143.34;;;7.92;66.75
56142;BME280;42018;48.588;10.836;2023-04-25T00:02:57;96146.78;;;7.92;66.02
56142;BME280;42018;48.588;10.836;2023-04-25T00:05:42;96149.97;;;8.10;65.75
56142;BME280;42018;48.588;10.836;2023-04-25T00:08:29;96144.16;;;8.13;66.04
56142;BME280;42018;48.588;10.836;2023-04-25T00:11:15;96149.16;;;7.99;66.41
56142;BME280;42018;48.588;10.836;2023-04-25T00:14:00;96145.97;;;7.77;67.06
56142;BME280;42018;48.588;10.836;2023-04-25T00:16:47;96157.03;;;7.63;67.44
56142;BME280;42018;48.588;10.836;2023-04-25T00:19:33;96156.00;;;7.75;67.38
56142;BME280;42018;48.588;10.836;2023-04-25T00:22:20;96149.63;;;7.60;67.11
56142;BME280;42018;48.588;10.836;2023-04-25T00:25:05;96151.22;;;7.51;67.58
56142;BME280;42018;48.588;10.836;2023-04-25T00:27:51;96145.94;;;7.56;67.59
56142;BME280;42018;48.588;10.836;2023-04-25T00:30:37;96146.50;;;7.74;67.52
56142;BME280;42018;48.588;10.836;2023-04-25T00:33:22;96145.97;;;7.77;67.34
56142;BME280;42018;48.588;10.836;2023-04-25T00:36:08;96152.28;;;7.71;67.55
56142;BME280;42018;48.588;10.836;2023-04-25T00:38:53;96146.22;;;7.60;67.86
56142;BME280;42018;48.588;10.836;2023-04-25T00:41:43;96143.84;;;7.58;68.23
56142;BME280;42018;48.588;10.836;2023-04-25T00:44:30;96134.34;;;7.52;68.40
56142;BME280;42018;48.588;10.836;2023-04-25T00:47:17;96139.13;;;7.65;68.84
56142;BME280;42018;48.588;10.836;2023-04-25T00:50:02;96137.78;;;7.68;68.60
56142;BME280;42018;48.588;10.836;2023-04-25T00:52:48;96133.28;;;7.63;69.18
56142;BME280;42018;48.588;10.836;2023-04-25T00:55:33;96128.81;;;7.64;69.52
56142;BME280;42018;48.588;10.836;2023-04-25T00:58:21;96124.81;;;7.46;70.13
56142;BME280;42018;48.588;10.836;2023-04-25T01:01:07;96128.75;;;7.38;70.50
56142;BME280;42018;48.588;10.836;2023-04-25T01:03:54;96121.91;;;7.42;72.04
56142;BME280;42018;48.588;10.836;2023-04-25T01:06:40;96118.50;;;7.52;71.85
56142;BME280;42018;48.588;10.836;2023-04-25T01:09:25;96113.81;;;7.70;71.05
56142;BME280;42018;48.588;10.836;2023-04-25T01:12:11;96120.13;;;7.63;71.65
56142;BME280;42018;48.588;10.836;2023-04-25T01:14:56;96117.22;;;7.55;72.33
56142;BME280;42018;48.588;10.836;2023-04-25T01:17:42;96113.53;;;7.66;72.20
56142;BME280;42018;48.588;10.836;2023-04-25T01:20:29;96112.50;;;7.72;71.64
56142;BME280;42018;48.588;10.836;2023-04-25T01:23:15;96108.00;;;7.73;72.26
56142;BME280;42018;48.588;10.836;2023-04-25T01:26:01;96100.88;;;7.78;71.85
56142;BME280;42018;48.588;10.836;2023-04-25T01:28:48;96101.97;;;7.98;71.26
56142;BME280;42018;48.588;10.836;2023-04-25T01:31:34;96086.09;;;8.18;70.53
56142;BME280;42018;48.588;10.836;2023-04-25T01:34:20;96088.47;;;8.35;69.44
56142;BME280;42018;48.588;10.836;2023-04-25T01:37:05;96088.47;;;8.20;70.92
56142;BME280;42018;48.588;10.836;2023-04-25T01:39:51;96100.63;;;8.05;71.20
56142;BME280;42018;48.588;10.836;2023-04-25T01:42:43;96109.09;;;7.97;71.12
56142;BME280;42018;48.588;10.836;2023-04-25T01:45:28;96113.31;;;8.19;70.94
56142;BME280;42018;48.588;10.836;2023-04-25T01:48:14;96109.84;;;8.33;70.37
56142;BME280;42018;48.588;10.836;2023-04-25T01:50:59;96107.50;;;8.47;69.77
56142;BME280;42018;48.588;10.836;2023-04-25T01:53:45;96102.47;;;8.46;69.79
56142;BME280;42018;48.588;10.836;2023-04-25T01:56:32;96109.31;;;8.21;69.70
56142;BME280;42018;48.588;10.836;2023-04-25T01:59:18;96111.69;;;7.61;72.50
56142;BME280;42018;48.588;10.836;2023-04-25T02:02:05;96110.41;;;7.79;71.64
56142;BME280;42018;48.588;10.836;2023-04-25T02:04:50;96111.97;;;7.90;71.01
56142;BME280;42018;48.588;10.836;2023-04-25T02:07:36;96110.38;;;8.10;70.39
56142;BME280;42018;48.588;10.836;2023-04-25T02:10:21;96107.75;;;7.79;71.36
56142;BME280;42018;48.588;10.836;2023-04-25T02:13:07;96106.16;;;7.83;71.77
56142;BME280;42018;48.588;10.836;2023-04-25T02:15:52;96113.50;;;7.46;73.00
56142;BME280;42018;48.588;10.836;2023-04-25T02:18:37;96110.28;;;7.23;74.04
56142;BME280;42018;48.588;10.836;2023-04-25T02:21:24;96109.28;;;7.44;73.03
56142;BME280;42018;48.588;10.836;2023-04-25T02:24:09;96105.59;;;7.61;72.37
56142;BME280;42018;48.588;10.836;2023-04-25T02:26:55;96103.78;;;7.61;71.73
56142;BME280;42018;48.588;10.836;2023-04-25T02:29:43;96097.69;;;7.46;71.57
56142;BME280;42018;48.588;10.836;2023-04-25T02:32:28;96109.00;;;7.46;71.32
56142;BME280;42018;48.588;10.836;2023-04-25T02:35:13;96105.84;;;7.49;71.87
56142;BME280;42018;48.588;10.836;2023-04-25T02:37:59;96099.53;;;7.40;71.31
56142;BME280;42018;48.588;10.836;2023-04-25T02:40:44;96104.22;;;7.23;71.78
56142;BME280;42018;48.588;10.836;2023-04-25T02:43:30;96110.75;;;7.15;71.71
56142;BME280;42018;48.588;10.836;2023-04-25T02:46:15;96111.31;;;7.17;72.41
56142;BME280;42018;48.588;10.836;2023-04-25T02:49:00;96113.63;;;6.98;73.31
56142;BME280;42018;48.588;10.836;2023-04-25T02:51:46;96114.91;;;6.95;73.76
56142;BME280;42018;48.588;10.836;2023-04-25T02:54:31;96103.94;;;7.29;73.01
56142;BME280;42018;48.588;10.836;2023-04-25T02:57:16;96105.88;;;7.54;71.86
56142;BME280;42018;48.588;10.836;2023-04-25T03:00:02;96105.34;;;7.67;71.62
56142;BME280;42018;48.588;10.836;2023-04-25T03:02:50;96104.31;;;7.74;71.38
56142;BME280;42018;48.588;10.836;2023-04-25T03:05:36;96103.78;;;7.82;71.21
56142;BME280;42018;48.588;10.836;2023-04-25T03:08:21;96095.09;;;7.86;71.36
56142;BME280;42018;48.588;10.836;2023-04-25T03:11:07;96104.59;;;7.98;71.17
56142;BME280;42018;48.588;10.836;2023-04-25T03:13:53;96100.38;;;8.12;69.78
56142;BME280;42018;48.588;10.836;2023-04-25T03:16:38;96094.31;;;7.91;70.19
56142;BME280;42018;48.588;10.836;2023-04-25T03:19:24;96094.81;;;7.78;70.88
56142;BME280;42018;48.588;10.836;2023-04-25T03:22:09;96090.09;;;8.05;70.03
56142;BME280;42018;48.588;10.836;2023-04-25T03:24:55;96094.81;;;8.03;70.12
56142;BME280;42018;48.588;10.836;2023-04-25T03:27:40;96090.84;;;8.26;69.32
56142;BME280;42018;48.588;10.836;2023-04-25T03:30:25;96080.56;;;8.25;69.33
56142;BME280;42018;48.588;10.836;2023-04-25T03:33:11;96081.09;;;8.16;69.48
56142;BME280;42018;48.588;10.836;2023-04-25T03:35:56;96084.53;;;8.22;69.75
56142;BME280;42018;48.588;10.836;2023-04-25T03:38:41;96068.69;;;8.37;69.17
56142;BME280;42018;48.588;10.836;2023-04-25T03:41:27;96068.13;;;8.46;69.16
56142;BME280;42018;48.588;10.836;2023-04-25T03:44:13;96071.34;;;8.37;70.02
56142;BME280;42018;48.588;10.836;2023-04-25T03:46:58;96082.69;;;8.38;69.72
56142;BME280;42018;48.588;10.836;2023-04-25T03:49:44;96078.97;;;8.34;70.53
56142;BME280;42018;48.588;10.836;2023-04-25T03:52:29;96079.50;;;8.26;71.07
56142;BME280;42018;48.588;10.836;2023-04-25T03:55:15;96075.28;;;8.20;70.75
56142;BME280;42018;48.588;10.836;2023-04-25T03:58:00;96076.88;;;8.21;70.48
56142;BME280;42018;48.588;10.836;2023-04-25T04:00:46;96080.06;;;7.97;71.82
56142;BME280;42018;48.588;10.836;2023-04-25T04:03:31;96081.91;;;7.91;73.00
56142;BME280;42018;48.588;10.836;2023-04-25T04:06:16;96085.34;;;7.77;74.05
56142;BME280;42018;48.588;10.836;2023-04-25T04:09:02;96083.75;;;7.91;73.58
56142;BME280;42018;48.588;10.836;2023-04-25T04:11:48;96087.19;;;8.02;73.05
56142;BME280;42018;48.588;10.836;2023-04-25T04:14:33;96085.84;;;7.99;73.49
56142;BME280;42018;48.588;10.836;2023-04-25T04:17:19;96082.44;;;7.73;74.14
56142;BME280;42018;48.588;10.836;2023-04-25T04:20:05;96076.91;;;7.80;74.10
56142;BME280;42018;48.588;10.836;2023-04-25T04:22:51;96075.31;;;7.94;73.29
56142;BME280;42018;48.588;10.836;2023-04-25T04:25:36;96070.56;;;7.91;73.54
56142;BME280;42018;48.588;10.836;2023-04-25T04:28:22;96071.88;;;7.99;73.11
56142;BME280;42018;48.588;10.836;2023-04-25T04:31:07;96077.97;;;7.94;73.61
56142;BME280;42018;48.588;10.836;2023-04-25T04:33:52;96075.81;;;7.86;74.09
56142;BME280;42018;48.588;10.836;2023-04-25T04:36:38;96080.06;;;7.87;74.36
56142;BME280;42018;48.588;10.836;2023-04-25T04:39:25;96068.44;;;8.03;73.98
56142;BME280;42018;48.588;10.836;2023-04-25T04:42:11;96077.16;;;8.09;73.86
56142;BME280;42018;48.588;10.836;2023-04-25T04:44:56;96076.63;;;8.07;73.90
56142;BME280;42018;48.588;10.836;2023-04-25T04:47:43;96073.72;;;8.19;73.59
56142;BME280;42018;48.588;10.836;2023-04-25T04:50:29;96074.25;;;8.26;72.84
56142;BME280;42018;48.588;10.836;2023-04-25T04:53:17;96081.09;;;8.06;72.91
56142;BME280;42018;48.588;10.836;2023-04-25T04:56:03;96075.03;;;8.06;73.20
56142;BME280;42018;48.588;10.836;2023-04-25T04:58:48;96078.75;;;8.15;73.34
56142;BME280;42018;48.588;10.836;2023-04-25T05:01:34;96090.34;;;7.99;74.00
56142;BME280;42018;48.588;10.836;2023-04-25T05:04:22;96087.44;;;8.00;74.33
56142;BME280;42018;48.588;10.836;2023-04-25T05:07:07;96081.63;;;8.19;73.48
56142;BME280;42018;48.588;10.836;2023-04-25T05:09:53;96085.84;;;8.09;73.73
56142;BME280;42018;48.588;10.836;2023-04-25T05:12:38;96093.00;;;7.83;74.71
56142;BME280;42018;48.588;10.836;2023-04-25T05:15:23;96090.31;;;7.68;75.96
56142;BME280;42018;48.588;10.836;2023-04-25T05:18:09;96091.63;;;7.60;76.86
56142;BME280;42018;48.588;10.836;2023-04-25T05:20:54;96090.59;;;7.77;76.38
56142;BME280;42018;48.588;10.836;2023-04-25T05:23:39;96094.78;;;7.52;76.34
56142;BME280;42018;48.588;10.836;2023-04-25T05:26:25;96087.69;;;7.73;75.92
56142;BME280;42018;48.588;10.836;2023-04-25T05:29:10;96087.94;;;7.72;75.06
56142;BME280;42018;48.588;10.836;2023-04-25T05:31:56;96075.84;;;7.81;74.91
56142;BME280;42018;48.588;10.836;2023-04-25T05:34:41;96088.50;;;7.74;75.37
56142;BME280;42018;48.588;10.836;2023-04-25T05:37:27;96078.72;;;7.74;76.08
56142;BME280;42018;48.588;10.836;2023-04-25T05:40:12;96081.63;;;7.88;75.48
56142;BME280;42018;48.588;10.836;2023-04-25T05:42:57;96079.50;;;7.64;76.32
56142;BME280;42018;48.588;10.836;2023-04-25T05:45:43;96065.56;;;7.69;76.51
56142;BME280;42018;48.588;10.836;2023-04-25T05:48:28;96075.31;;;7.89;76.18
56142;BME280;42018;48.588;10.836;2023-04-25T05:51:13;96072.94;;;7.77;75.43
56142;BME280;42018;48.588;10.836;2023-04-25T05:53:59;96072.66;;;7.89;76.33
56142;BME280;42018;48.588;10.836;2023-04-25T05:56:44;96075.31;;;7.68;75.58
56142;BME280;42018;48.588;10.836;2023-04-25T05:59:30;96086.38;;;7.86;75.70
56142;BME280;42018;48.588;10.836;2023-04-25T06:02:15;96079.50;;;8.21;75.02
56142;BME280;42018;48.588;10.836;2023-04-25T06:05:01;96078.44;;;8.22;73.56
56142;BME280;42018;48.588;10.836;2023-04-25T06:07:48;96072.66;;;8.30;73.95
56142;BME280;42018;48.588;10.836;2023-04-25T06:10:33;96077.38;;;8.28;72.61
56142;BME280;42018;48.588;10.836;2023-04-25T06:13:19;96077.91;;;8.30;73.47
56142;BME280;42018;48.588;10.836;2023-04-25T06:16:09;96084.78;;;8.26;72.76
56142;BME280;42018;48.588;10.836;2023-04-25T06:18:55;96089.03;;;8.01;73.44
56142;BME280;42018;48.588;10.836;2023-04-25T06:21:42;96089.81;;;7.91;73.62
56142;BME280;42018;48.588;10.836;2023-04-25T06:24:30;96094.75;;;7.27;74.31
56142;BME280;42018;48.588;10.836;2023-04-25T06:27:15;96089.81;;;7.71;75.15
56142;BME280;42018;48.588;10.836;2023-04-25T06:30:01;96089.31;;;7.79;74.34
56142;BME280;42018;48.588;10.836;2023-04-25T06:32:46;96098.25;;;7.73;74.33
56142;BME280;42018;48.588;10.836;2023-04-25T06:35:32;96093.22;;;7.56;73.94
56142;BME280;42018;48.588;10.836;2023-04-25T06:38:17;96092.69;;;7.75;75.53
56142;BME280;42018;48.588;10.836;2023-04-25T06:41:02;96087.97;;;7.92;74.41
56142;BME280;42018;48.588;10.836;2023-04-25T06:43:48;96077.41;;;8.12;74.42
56142;BME280;42018;48.588;10.836;2023-04-25T06:46:33;96064.69;;;8.55;72.97
56142;BME280;42018;48.588;10.836;2023-04-25T06:49:18;96055.53;;;9.07;73.20
56142;BME280;42018;48.588;10.836;2023-04-25T06:52:04;96070.47;;;9.27;71.73
56142;BME280;42018;48.588;10.836;2023-04-25T06:54:54;96070.47;;;9.27;69.03
56142;BME280;42018;48.588;10.836;2023-04-25T06:57:39;96073.28;;;8.97;69.53
56142;BME280;42018;48.588;10.836;2023-04-25T07:00:33;96082.63;;;8.69;69.87
56142;BME280;42018;48.588;10.836;2023-04-25T07:03:19;96073.88;;;8.73;70.84
56142;BME280;42018;48.588;10.836;2023-04-25T07:06:04;96080.47;;;8.71;71.95
56142;BME280;42018;48.588;10.836;2023-04-25T07:08:50;96078.88;;;8.80;70.09
56142;BME280;42018;48.588;10.836;2023-04-25T07:11:36;96078.91;;;8.70;70.72
56142;BME280;42018;48.588;10.836;2023-04-25T07:14:21;96083.31;;;8.95;70.13
56142;BME280;42018;48.588;10.836;2023-04-25T07:17:07;96071.97;;;8.89;70.18
56142;BME280;42018;48.588;10.836;2023-04-25T07:19:52;96077.81;;;8.81;70.07
56142;BME280;42018;48.588;10.836;2023-04-25T07:22:38;96076.44;;;8.94;70.62
56142;BME280;42018;48.588;10.836;2023-04-25T07:25:23;96070.41;;;8.83;69.88
56142;BME280;42018;48.588;10.836;2023-04-25T07:28:09;96061.25;;;9.20;69.62
56142;BME280;42018;48.588;10.836;2023-04-25T07:30:54;96063.13;;;9.14;68.71
56142;BME280;42018;48.588;10.836;2023-04-25T07:33:39;96074.41;;;8.75;67.35
56142;BME280;42018;48.588;10.836;2023-04-25T07:36:25;96070.47;;;8.62;68.50
56142;BME280;42018;48.588;10.836;2023-04-25T07:39:11;96071.06;;;9.14;68.02
56142;BME280;42018;48.588;10.836;2023-04-25T07:41:57;96071.13;;;9.48;66.24
56142;BME280;42018;48.588;10.836;2023-04-25T07:44:43;96068.13;;;9.65;65.73
56142;BME280;42018;48.588;10.836;2023-04-25T07:47:29;96073.09;;;9.27;66.63
56142;BME280;42018;48.588;10.836;2023-04-25T07:50:14;96076.00;;;9.75;65.88
56142;BME280;42018;48.588;10.836;2023-04-25T07:52:59;96071.50;;;9.71;65.85
56142;BME280;42018;48.588;10.836;2023-04-25T07:55:45;96073.66;;;9.64;66.50
56142;BME280;42018;48.588;10.836;2023-04-25T07:58:30;96069.31;;;9.83;64.34
56142;BME280;42018;48.588;10.836;2023-04-25T08:01:15;96089.00;;;9.67;64.15
56142;BME280;42018;48.588;10.836;2023-04-25T08:04:01;96076.66;;;9.91;64.55
56142;BME280;42018;48.588;10.836;2023-04-25T08:06:47;96083.16;;;10.38;64.03
56142;BME280;42018;48.588;10.836;2023-04-25T08:09:33;96080.31;;;10.83;61.94
56142;BME280;42018;48.588;10.836;2023-04-25T08:12:20;96078.81;;;11.19;62.26
56142;BME280;42018;48.588;10.836;2023-04-25T08:15:06;96077.34;;;11.08;61.46
56142;BME280;42018;48.588;10.836;2023-04-25T08:17:52;96076.66;;;11.21;60.20
56142;BME280;42018;48.588;10.836;2023-04-25T08:20:37;96080.53;;;11.10;61.14
56142;BME280;42018;48.588;10.836;2023-04-25T08:23:22;96074.44;;;11.47;60.58
56142;BME280;42018;48.588;10.836;2023-04-25T08:26:08;96075.88;;;11.21;58.33
56142;BME280;42018;48.588;10.836;2023-04-25T08:28:53;96074.97;;;11.49;59.81
56142;BME280;42018;48.588;10.836;2023-04-25T08:31:39;96077.66;;;11.44;60.62
56142;BME280;42018;48.588;10.836;2023-04-25T08:34:24;96075.53;;;11.84;58.06
56142;BME280;42018;48.588;10.836;2023-04-25T08:37:10;96086.28;;;11.74;57.55
56142;BME280;42018;48.588;10.836;2023-04-25T08:39:56;96094.38;;;11.64;57.64
56142;BME280;42018;48.588;10.836;2023-04-25T08:42:41;96105.16;;;11.54;57.65
56142;BME280;42018;48.588;10.836;2023-04-25T08:45:27;96096.25;;;11.44;56.87
56142;BME280;42018;48.588;10.836;2023-04-25T08:48:16;96104.78;;;11.60;57.01
56142;BME280;42018;48.588;10.836;2023-04-25T08:51:02;96103.56;;;11.90;55.96
56142;BME280;42018;48.588;10.836;2023-04-25T08:53:51;96103.13;;;11.83;56.07
56142;BME280;42018;48.588;10.836;2023-04-25T08:56:41;96107.00;;;11.53;55.59
56142;BME280;42018;48.588;10.836;2023-04-25T08:59:29;96114.19;;;11.53;56.66
56142;BME280;42018;48.588;10.836;2023-04-25T09:02:15;96105.44;;;11.71;56.38
56142;BME280;42018;48.588;10.836;2023-04-25T09:05:03;96111.97;;;11.17;57.30
56142;BME280;42018;48.588;10.836;2023-04-25T09:07:49;96117.03;;;11.37;58.77
56142;BME280;42018;48.588;10.836;2023-04-25T09:10:34;96119.09;;;11.40;58.37
56142;BME280;42018;48.588;10.836;2023-04-25T09:13:27;96118.97;;;11.32;58.82
56142;BME280;42018;48.588;10.836;2023-04-25T09:16:13;96125.53;;;10.91;59.10
56142;BME280;42018;48.588;10.836;2023-04-25T09:19:02;96121.44;;;10.51;60.43
56142;BME280;42018;48.588;10.836;2023-04-25T09:21:50;96122.13;;;11.10;60.59
56142;BME280;42018;48.588;10.836;2023-04-25T09:24:42;96124.16;;;11.61;59.59
56142;BME280;42018;48.588;10.836;2023-04-25T09:27:28;96130.38;;;12.08;57.22
56142;BME280;42018;48.588;10.836;2023-04-25T09:30:15;96122.50;;;12.35;55.60
56142;BME280;42018;48.588;10.836;2023-04-25T09:33:10;96130.53;;;11.79;54.86
56142;BME280;42018;48.588;10.836;2023-04-25T09:36:10;96141.41;;;11.77;56.23
56142;BME280;42018;48.588;10.836;2023-04-25T09:38:59;96148.69;;;11.71;55.48
56142;BME280;42018;48.588;10.836;2023-04-25T09:41:45;96154.72;;;11.34;59.26
56142;BME280;42018;48.588;10.836;2023-04-25T09:44:31;96157.09;;;11.12;62.40
56142;BME280;42018;48.588;10.836;2023-04-25T09:47:16;96156.72;;;10.99;63.94
56142;BME280;42018;48.588;10.836;2023-04-25T09:50:03;96154.13;;;11.18;63.69
56142;BME280;42018;48.588;10.836;2023-04-25T09:53:03;96164.50;;;11.15;62.48
56142;BME280;42018;48.588;10.836;2023-04-25T09:55:49;96168.41;;;11.41;61.36
56142;BME280;42018;48.588;10.836;2023-04-25T09:58:36;96167.19;;;11.34;60.59
56142;BME280;42018;48.588;10.836;2023-04-25T10:01:23;96171.69;;;11.57;61.31
56142;BME280;42018;48.588;10.836;2023-04-25T10:04:10;96176.00;;;11.53;59.94
56142;BME280;42018;48.588;10.836;2023-04-25T10:06:57;96171.69;;;11.57;60.30
56142;BME280;42018;48.588;10.836;2023-04-25T10:09:47;96166.34;;;11.81;60.16
56142;BME280;42018;48.588;10.836;2023-04-25T10:12:33;96165.38;;;11.72;60.32
56142;BME280;42018;48.588;10.836;2023-04-25T10:15:19;96160.63;;;11.50;58.77
56142;BME280;42018;48.588;10.836;2023-04-25T10:18:04;96166.09;;;11.59;59.04
56142;BME280;42018;48.588;10.836;2023-04-25T10:20:51;96162.19;;;11.94;58.50
56142;BME280;42018;48.588;10.836;2023-04-25T10:23:37;96160.22;;;12.18;57.49
56142;BME280;42018;48.588;10.836;2023-04-25T10:26:24;96163.09;;;12.22;57.02
56142;BME280;42018;48.588;10.836;2023-04-25T10:29:09;96175.28;;;12.42;56.60
56142;BME280;42018;48.588;10.836;2023-04-25T10:31:56;96174.66;;;12.31;56.70
56142;BME280;42018;48.588;10.836;2023-04-25T10:34:43;96167.16;;;12.66;57.05
56142;BME280;42018;48.588;10.836;2023-04-25T10:37:32;96175.91;;;12.53;56.52
56142;BME280;42018;48.588;10.836;2023-04-25T10:40:21;96180.25;;;12.11;57.72
56142;BME280;42018;48.588;10.836;2023-04-25T10:49:04;96186.44;;;11.87;55.74
56142;BME280;42018;48.588;10.836;2023-04-25T10:51:50;96178.19;;;11.89;56.83
56142;BME280;42018;48.588;10.836;2023-04-25T10:54:51;96176.63;;;12.07;56.93
56142;BME280;42018;48.588;10.836;2023-04-25T11:00:23;96172.94;;;11.84;56.52
56142;BME280;42018;48.588;10.836;2023-04-25T11:03:16;96186.66;;;11.91;56.58
56142;BME280;42018;48.588;10.836;2023-04-25T11:06:02;96185.84;;;11.71;56.12
56142;BME280;42018;48.588;10.836;2023-04-25T11:08:49;96191.16;;;11.90;55.67
56142;BME280;42018;48.588;10.836;2023-04-25T11:11:36;96189.59;;;11.89;55.46
56142;BME280;42018;48.588;10.836;2023-04-25T11:14:22;96188.47;;;11.53;54.05
56142;BME280;42018;48.588;10.836;2023-04-25T11:17:08;96189.28;;;11.48;54.58
56142;BME280;42018;48.588;10.836;2023-04-25T11:19:54;96197.56;;;11.46;54.74
56142;BME280;42018;48.588;10.836;2023-04-25T11:22:40;96195.34;;;11.30;54.99
56142;BME280;42018;48.588;10.836;2023-04-25T11:25:28;96190.25;;;11.57;54.32
56142;BME280;42018;48.588;10.836;2023-04-25T11:28:20;96193.31;;;11.45;55.19
56142;BME280;42018;48.588;10.836;2023-04-25T11:31:06;96193.47;;;11.54;54.92
56142;BME280;42018;48.588;10.836;2023-04-25T11:33:53;96192.06;;;11.62;54.72
56142;BME280;42018;48.588;10.836;2023-04-25T11:36:40;96200.56;;;11.59;53.88
56142;BME280;42018;48.588;10.836;2023-04-25T11:39:26;96203.78;;;11.56;53.86
56142;BME280;42018;48.588;10.836;2023-04-25T11:42:13;96200.59;;;11.35;55.03
56142;BME280;42018;48.588;10.836;2023-04-25T11:44:58;96206.28;;;11.47;55.95
56142;BME280;42018;48.588;10.836;2023-04-25T11:47:44;96210.81;;;11.46;54.58
56142;BME280;42018;48.588;10.836;2023-04-25T11:50:30;96222.03;;;11.38;57.76
56142;BME280;42018;48.588;10.836;2023-04-25T11:53:17;96226.31;;;10.81;64.48
56142;BME280;42018;48.588;10.836;2023-04-25T11:56:09;96226.97;;;9.89;68.03
56142;BME280;42018;48.588;10.836;2023-04-25T11:58:59;96246.03;;;8.96;72.74
56142;BME280;42018;48.588;10.836;2023-04-25T12:01:49;96241.31;;;8.77;75.52
56142;BME280;42018;48.588;10.836;2023-04-25T12:04:35;96247.66;;;8.76;75.70
56142;BME280;42018;48.588;10.836;2023-04-25T12:07:20;96247.34;;;9.08;74.94
56142;BME280;42018;48.588;10.836;2023-04-25T12:10:08;96247.09;;;9.00;76.43
56142;BME280;42018;48.588;10.836;2023-04-25T12:12:54;96249.47;;;9.11;74.46
56142;BME280;42018;48.588;10.836;2023-04-25T12:15:40;96246.06;;;8.50;75.46
56142;BME280;42018;48.588;10.836;2023-04-25T12:18:25;96236.56;;;8.90;74.59
56142;BME280;42018;48.588;10.836;2023-04-25T12:21:12;96235.22;;;8.82;74.37
56142;BME280;42018;48.588;10.836;2023-04-25T12:24:18;96225.47;;;9.73;73.89
56142;BME280;42018;48.588;10.836;2023-04-25T12:27:06;96228.06;;;9.78;73.14
56142;BME280;42018;48.588;10.836;2023-04-25T12:29:54;96230.66;;;9.88;69.35
56142;BME280;42018;48.588;10.836;2023-04-25T12:32:40;96236.50;;;9.85;71.45
56142;BME280;42018;48.588;10.836;2023-04-25T12:35:26;96238.44;;;10.14;70.13
56142;BME280;42018;48.588;10.836;2023-04-25T12:41:08;96240.66;;;10.01;68.17
56142;BME280;42018;48.588;10.836;2023-04-25T12:43:54;96243.16;;;9.82;67.38
56142;BME280;42018;48.588;10.836;2023-04-25T12:46:40;96247.19;;;9.65;67.16
56142;BME280;42018;48.588;10.836;2023-04-25T12:49:26;96256.78;;;9.50;67.87
56142;BME280;42018;48.588;10.836;2023-04-25T12:52:11;96249.66;;;10.00;70.75
56142;BME280;42018;48.588;10.836;2023-04-25T12:58:42;96285.16;;;8.88;73.12
56142;BME280;42018;48.588;10.836;2023-04-25T13:01:48;96286.47;;;8.40;77.66
56142;BME280;42018;48.588;10.836;2023-04-25T13:04:39;96294.03;;;8.16;79.27
56142;BME280;42018;48.588;10.836;2023-04-25T13:07:24;96293.75;;;8.07;82.10
56142;BME280;42018;48.588;10.836;2023-04-25T13:10:15;96296.47;;;8.38;82.52
56142;BME280;42018;48.588;10.836;2023-04-25T13:13:00;96297.31;;;8.54;80.28
56142;BME280;42018;48.588;10.836;2023-04-25T13:15:46;96300.06;;;8.01;83.33
56142;BME280;42018;48.588;10.836;2023-04-25T13:18:31;96307.47;;;8.14;82.50
56142;BME280;42018;48.588;10.836;2023-04-25T13:21:17;96302.91;;;7.89;81.86
56142;BME280;42018;48.588;10.836;2023-04-25T13:24:02;96294.91;;;8.52;81.66
56142;BME280;42018;48.588;10.836;2023-04-25T13:26:48;96301.97;;;8.31;83.79
56142;BME280;42018;48.588;10.836;2023-04-25T13:29:33;96299.00;;;7.97;83.64
56142;BME280;42018;48.588;10.836;2023-04-25T13:32:20;96306.16;;;7.44;80.37
56142;BME280;42018;48.588;10.836;2023-04-25T13:35:08;96311.72;;;7.05;82.48
56142;BME280;42018;48.588;10.836;2023-04-25T13:37:53;96314.28;;;7.37;81.90
56142;BME280;42018;48.588;10.836;2023-04-25T13:40:39;96313.91;;;6.54;83.27
56142;BME280;42018;48.588;10.836;2023-04-25T13:43:24;96318.19;;;6.92;83.95
56142;BME280;42018;48.588;10.836;2023-04-25T13:46:10;96317.63;;;7.23;83.66
56142;BME280;42018;48.588;10.836;2023-04-25T13:48:56;96330.75;;;6.80;85.28
56142;BME280;42018;48.588;10.836;2023-04-25T13:51:42;96341.91;;;7.30;84.92
56142;BME280;42018;48.588;10.836;2023-04-25T13:54:27;96354.47;;;7.55;83.01
56142;BME280;42018;48.588;10.836;2023-04-25T13:57:13;96354.88;;;7.89;82.83
56142;BME280;42018;48.588;10.836;2023-04-25T13:59:58;96367.06;;;8.00;83.71
56142;BME280;42018;48.588;10.836;2023-04-25T14:02:44;96361.06;;;8.15;83.21
56142;BME280;42018;48.588;10.836;2023-04-25T14:05:29;96361.53;;;8.02;84.76
56142;BME280;42018;48.588;10.836;2023-04-25T14:08:15;96364.16;;;7.49;85.40
56142;BME280;42018;48.588;10.836;2023-04-25T14:11:00;96351.06;;;7.22;86.78
56142;BME280;42018;48.588;10.836;2023-04-25T14:13:46;96349.47;;;7.21;88.20
56142;BME280;42018;48.588;10.836;2023-04-25T14:16:31;96333.44;;;7.70;86.95
56142;BME280;42018;48.588;10.836;2023-04-25T14:19:17;96346.34;;;7.66;87.35
56142;BME280;42018;48.588;10.836;2023-04-25T14:22:03;96337.47;;;7.88;87.32
56142;BME280;42018;48.588;10.836;2023-04-25T14:24:48;96343.91;;;8.12;84.56
56142;BME280;42018;48.588;10.836;2023-04-25T14:27:33;96338.34;;;8.14;83.94
56142;BME280;42018;48.588;10.836;2023-04-25T14:30:20;96340.00;;;8.30;83.05
56142;BME280;42018;48.588;10.836;2023-04-25T14:33:06;96342.56;;;8.05;81.26
56142;BME280;42018;48.588;10.836;2023-04-25T14:35:51;96342.19;;;7.81;80.37
56142;BME280;42018;48.588;10.836;2023-04-25T14:38:37;96353.00;;;7.79;81.51
56142;BME280;42018;48.588;10.836;2023-04-25T14:41:24;96347.97;;;7.73;80.45
56142;BME280;42018;48.588;10.836;2023-04-25T14:44:10;96356.25;;;8.02;81.05
56142;BME280;42018;48.588;10.836;2023-04-25T14:46:55;96348.44;;;8.22;82.31
56142;BME280;42018;48.588;10.836;2023-04-25T14:49:40;96353.41;;;8.13;79.09
56142;BME280;42018;48.588;10.836;2023-04-25T14:52:26;96359.34;;;8.51;78.50